createdAt,value
2019-04-01T00:01:10.182Z,11.83
2019-04-01T00:03:41.567Z,11.03
2019-04-01T00:06:13.021Z,11.33
2019-04-01T00:08:44.498Z,11.73
2019-04-01T00:11:16.525Z,11.37
2019-04-01T00:13:48.519Z,11.00
2019-04-01T00:16:20.431Z,11.93
2019-04-01T00:19:02.367Z,11.70
2019-04-01T00:21:24.775Z,11.83
2019-04-01T00:23:56.606Z,10.47
2019-04-01T00:26:28.220Z,13.13
2019-04-01T00:29:00.008Z,11.83
2019-04-01T00:31:31.341Z,11.70
2019-04-01T00:34:03.022Z,10.97
2019-04-01T00:36:34.254Z,12.70
2019-04-01T00:39:07.437Z,12.80
2019-04-01T00:41:48.831Z,12.57
2019-04-01T00:44:20.121Z,12.77
2019-04-01T00:46:50.837Z,11.67
2019-04-01T00:49:22.626Z,13.27
2019-04-01T00:51:54.880Z,12.03
2019-04-01T00:54:26.173Z,12.27
2019-04-01T00:56:59.677Z,13.60
2019-04-01T00:59:31.467Z,12.93
2019-04-01T01:02:02.900Z,13.40
2019-04-01T01:04:34.908Z,13.03
2019-04-01T01:07:06.727Z,12.80
2019-04-01T01:09:38.498Z,12.10
2019-04-01T01:12:10.037Z,12.77
2019-04-01T01:14:41.517Z,11.87
2019-04-01T01:17:12.715Z,12.47
2019-04-01T01:19:43.437Z,12.17
2019-04-01T01:22:16.180Z,11.97
2019-04-01T01:24:47.289Z,12.67
2019-04-01T01:27:19.074Z,19.70
2019-04-01T01:29:50.576Z,15.17
2019-04-01T01:32:22.218Z,16.50
2019-04-01T01:34:54.703Z,19.83
2019-04-01T01:37:30.313Z,19.10
2019-04-01T01:40:01.942Z,18.57
2019-04-01T01:42:33.263Z,18.43
2019-04-01T01:45:05.133Z,19.73
2019-04-01T01:47:37.402Z,17.40
2019-04-01T01:50:09.103Z,16.97
2019-04-01T01:52:40.733Z,15.43
2019-04-01T01:55:12.591Z,15.57
2019-04-01T01:57:44.087Z,12.93
2019-04-01T02:00:16.734Z,13.20
2019-04-01T02:02:48.648Z,12.37
2019-04-01T02:05:20.737Z,11.83
2019-04-01T02:07:53.070Z,12.37
2019-04-01T02:10:25.119Z,11.47
2019-04-01T02:12:57.529Z,12.73
2019-04-01T02:15:29.323Z,12.37
2019-04-01T02:18:00.933Z,12.43
2019-04-01T02:20:32.777Z,12.33
2019-04-01T02:23:04.825Z,12.13
2019-04-01T02:25:36.183Z,11.93
2019-04-01T02:28:07.378Z,12.87
2019-04-01T02:30:38.764Z,12.17
2019-04-01T02:33:11.724Z,11.80
2019-04-01T02:35:42.963Z,12.50
2019-04-01T02:38:14.916Z,12.50
2019-04-01T02:40:46.633Z,11.33
2019-04-01T02:43:17.407Z,11.87
2019-04-01T02:45:48.998Z,12.83
2019-04-01T02:48:20.030Z,11.67
2019-04-01T02:50:52.452Z,12.67
2019-04-01T02:53:23.905Z,13.23
2019-04-01T02:55:59.940Z,13.00
2019-04-01T02:58:31.496Z,13.57
2019-04-01T03:01:03.077Z,13.30
2019-04-01T03:03:35.108Z,12.73
2019-04-01T03:06:06.440Z,12.23
2019-04-01T03:08:37.853Z,12.83
2019-04-01T03:11:10.756Z,13.13
2019-04-01T03:13:42.934Z,12.80
2019-04-01T03:16:14.318Z,14.40
2019-04-01T03:18:46.155Z,13.97
2019-04-01T03:21:17.916Z,13.30
2019-04-01T03:23:48.786Z,14.10
2019-04-01T03:26:20.747Z,13.53
2019-04-01T03:28:52.454Z,13.87
2019-04-01T03:31:23.753Z,13.37
2019-04-01T03:33:55.455Z,13.57
2019-04-01T03:36:27.287Z,13.67
2019-04-01T03:38:58.690Z,13.47
2019-04-01T03:41:29.238Z,13.70
2019-04-01T03:43:59.798Z,13.47
2019-04-01T03:46:30.361Z,14.23
2019-04-01T03:49:01.519Z,15.67
2019-04-01T03:51:32.707Z,15.83
2019-04-01T03:54:03.562Z,14.10
2019-04-01T03:56:34.396Z,13.40
2019-04-01T03:59:05.083Z,14.50
2019-04-01T04:01:35.813Z,13.47
2019-04-01T04:04:06.983Z,13.27
2019-04-01T04:06:37.682Z,14.00
2019-04-01T04:09:08.311Z,16.27
2019-04-01T04:11:38.972Z,15.63
2019-04-01T04:14:09.905Z,18.33
2019-04-01T04:16:41.148Z,17.45
2019-04-01T04:19:11.876Z,20.23
2019-04-01T04:21:42.378Z,15.17
2019-04-01T04:24:12.915Z,19.50
2019-04-01T04:26:45.397Z,16.60
2019-04-01T04:29:16.047Z,15.57
2019-04-01T04:31:46.656Z,16.17
2019-04-01T04:34:17.309Z,17.20
2019-04-01T04:36:47.867Z,18.20
2019-04-01T04:39:19.214Z,19.00
2019-04-01T04:41:49.899Z,16.23
2019-04-01T04:44:20.413Z,15.00
2019-04-01T04:46:51.067Z,14.97
2019-04-01T04:49:21.866Z,14.13
2019-04-01T04:51:53.043Z,14.00
2019-04-01T04:54:23.793Z,14.50
2019-04-01T04:56:54.472Z,15.37
2019-04-01T04:59:25.023Z,15.50
2019-04-01T05:01:55.561Z,14.00
2019-04-01T05:04:26.926Z,15.30
2019-04-01T05:06:57.568Z,15.57
2019-04-01T05:09:28.196Z,14.70
2019-04-01T05:11:58.792Z,15.90
2019-04-01T05:14:29.805Z,18.13
2019-04-01T05:17:00.993Z,15.97
2019-04-01T05:19:31.957Z,17.40
2019-04-01T05:22:02.861Z,15.83
2019-04-01T05:24:34.553Z,16.10
2019-04-01T05:27:05.829Z,15.53
2019-04-01T05:29:38.285Z,15.90
2019-04-01T05:32:11.239Z,16.13
2019-04-01T05:34:45.717Z,16.20
2019-04-01T05:37:16.996Z,16.73
2019-04-01T05:39:48.346Z,17.33
2019-04-01T05:42:20.048Z,18.50
2019-04-01T05:44:51.446Z,17.60
2019-04-01T05:47:27.336Z,19.17
2019-04-01T05:49:58.169Z,19.00
2019-04-01T05:52:28.940Z,17.43
2019-04-01T05:55:00.270Z,18.60
2019-04-01T05:57:32.232Z,18.43
2019-04-01T06:00:04.159Z,19.53
2019-04-01T06:02:35.566Z,17.37
2019-04-01T06:05:07.767Z,17.87
2019-04-01T06:07:39.031Z,17.83
2019-04-01T06:10:12.149Z,17.23
2019-04-01T06:12:44.329Z,17.93
2019-04-01T06:15:15.814Z,18.97
2019-04-01T06:17:47.023Z,19.00
2019-04-01T06:20:18.812Z,18.10
2019-04-01T06:22:50.621Z,17.23
2019-04-01T06:25:21.528Z,16.17
2019-04-01T06:27:53.733Z,18.50
2019-04-01T06:30:25.104Z,18.07
2019-04-01T06:32:56.249Z,17.62
2019-04-01T06:35:27.896Z,15.47
2019-04-01T06:37:59.814Z,16.67
2019-04-01T06:40:30.596Z,14.30
2019-04-01T06:43:01.601Z,14.73
2019-04-01T06:45:32.852Z,14.80
2019-04-01T06:48:04.257Z,13.33
2019-04-01T06:50:35.544Z,14.27
2019-04-01T06:53:06.760Z,13.23
2019-04-01T06:55:38.604Z,14.10
2019-04-01T06:58:12.156Z,13.93
2019-04-01T07:00:43.417Z,13.40
2019-04-01T07:03:14.792Z,15.37
2019-04-01T07:05:46.455Z,17.73
2019-04-01T07:08:17.783Z,28.03
2019-04-01T07:10:48.806Z,18.30
2019-04-01T07:13:20.465Z,18.03
2019-04-01T07:15:53.050Z,18.80
2019-04-01T07:18:24.435Z,15.80
2019-04-01T07:20:56.026Z,17.07
2019-04-01T07:23:27.402Z,13.87
2019-04-01T07:25:58.866Z,14.80
2019-04-01T07:28:30.289Z,15.63
2019-04-01T07:31:02.211Z,14.50
2019-04-01T07:33:34.301Z,14.77
2019-04-01T07:36:05.600Z,16.25
2019-04-01T07:38:37.370Z,16.00
2019-04-01T07:41:10.103Z,15.35
2019-04-01T07:43:41.057Z,14.53
2019-04-01T07:46:13.581Z,15.77
2019-04-01T07:48:45.446Z,14.53
2019-04-01T07:51:17.097Z,14.27
2019-04-01T07:53:48.190Z,12.97
2019-04-01T07:56:20.078Z,13.27
2019-04-01T07:58:51.178Z,14.43
2019-04-01T08:01:21.648Z,12.97
2019-04-01T08:03:52.334Z,14.15
2019-04-01T08:06:22.886Z,13.80
2019-04-01T08:08:54.378Z,16.20
2019-04-01T08:11:25.139Z,17.23
2019-04-01T08:13:56.203Z,16.12
2019-04-01T08:16:31.794Z,17.37
2019-04-01T08:19:03.841Z,15.93
2019-04-01T08:21:34.632Z,15.67
2019-04-01T08:24:05.890Z,15.97
2019-04-01T08:26:37.899Z,15.60
2019-04-01T08:29:08.772Z,16.10
2019-04-01T08:31:39.596Z,14.47
2019-04-01T08:34:10.318Z,13.57
2019-04-01T08:36:41.412Z,14.43
2019-04-01T08:39:15.792Z,14.70
2019-04-01T08:41:46.395Z,14.83
2019-04-01T08:44:18.308Z,14.90
2019-04-01T08:46:49.262Z,13.40
2019-04-01T08:49:20.173Z,13.03
2019-04-01T08:51:50.984Z,12.07
2019-04-01T08:54:21.782Z,11.83
2019-04-01T08:56:52.907Z,12.43
2019-04-01T08:59:23.729Z,12.67
2019-04-01T09:01:54.436Z,12.97
2019-04-01T09:04:25.262Z,12.70
2019-04-01T09:06:56.842Z,12.73
2019-04-01T09:09:29.489Z,10.90
2019-04-01T09:12:01.393Z,11.20
2019-04-01T09:14:32.790Z,8.67
2019-04-01T09:17:04.033Z,9.20
2019-04-01T09:19:35.329Z,9.90
2019-04-01T09:22:06.024Z,8.70
2019-04-01T09:24:36.575Z,10.03
2019-04-01T09:27:07.819Z,10.03
2019-04-01T09:29:38.565Z,9.43
2019-04-01T09:32:09.817Z,9.90
2019-04-01T09:34:40.969Z,9.53
2019-04-01T09:37:14.429Z,10.33
2019-04-01T09:39:45.519Z,7.90
2019-04-01T09:42:16.170Z,8.67
2019-04-01T09:44:47.656Z,9.47
2019-04-01T09:47:18.250Z,8.53
2019-04-01T09:49:49.080Z,9.57
2019-04-01T09:52:20.595Z,8.23
2019-04-01T09:54:51.296Z,10.37
2019-04-01T09:57:22.372Z,8.57
2019-04-01T09:59:53.399Z,9.60
2019-04-01T10:02:31.760Z,8.97
2019-04-01T10:04:57.366Z,8.63
2019-04-01T10:07:28.241Z,7.97
2019-04-01T10:09:59.048Z,8.43
2019-04-01T10:12:29.629Z,8.90
2019-04-01T10:15:01.230Z,8.67
2019-04-01T10:17:32.545Z,7.30
2019-04-01T10:20:03.376Z,7.43
2019-04-01T10:22:34.435Z,8.23
2019-04-01T10:25:05.740Z,6.87
2019-04-01T10:27:37.005Z,7.93
2019-04-01T10:30:08.577Z,7.63
2019-04-01T10:32:39.304Z,5.90
2019-04-01T10:35:10.787Z,7.97
2019-04-01T10:37:41.490Z,7.93
2019-04-01T10:40:16.214Z,7.90
2019-04-01T10:42:46.866Z,7.90
2019-04-01T10:45:18.541Z,8.98
2019-04-01T10:47:49.827Z,8.27
2019-04-01T10:50:20.728Z,7.83
2019-04-01T10:52:51.468Z,7.63
2019-04-01T10:55:22.299Z,7.93
2019-04-01T10:57:54.305Z,9.25
2019-04-01T11:00:25.139Z,7.70
2019-04-01T11:02:55.832Z,7.90
2019-04-01T11:05:27.137Z,7.70
2019-04-01T11:07:57.925Z,7.40
2019-04-01T11:10:28.612Z,8.53
2019-04-01T11:12:59.209Z,7.37
2019-04-01T11:15:30.062Z,7.83
2019-04-01T11:18:01.297Z,7.67
2019-04-01T11:20:31.809Z,7.90
2019-04-01T11:23:04.172Z,7.97
2019-04-01T11:25:35.362Z,8.13
2019-04-01T11:28:06.581Z,8.07
2019-04-01T11:30:37.737Z,8.77
2019-04-01T11:33:08.712Z,7.90
2019-04-01T11:35:39.979Z,7.33
2019-04-01T11:38:10.708Z,7.13
2019-04-01T11:40:42.106Z,7.10
2019-04-01T11:43:13.262Z,7.57
2019-04-01T11:45:44.133Z,6.83
2019-04-01T11:48:14.955Z,7.50
2019-04-01T11:50:47.726Z,8.00
2019-04-01T11:53:18.265Z,7.23
2019-04-01T11:55:48.997Z,6.60
2019-04-01T11:58:19.653Z,7.43
2019-04-01T12:00:50.493Z,6.93
2019-04-01T12:03:21.071Z,7.13
2019-04-01T12:05:52.396Z,6.53
2019-04-01T12:08:23.586Z,7.10
2019-04-01T12:10:54.768Z,7.00
2019-04-01T12:13:28.839Z,6.97
2019-04-01T12:16:00.138Z,6.90
2019-04-01T12:18:31.300Z,7.10
2019-04-01T12:21:02.022Z,7.17
2019-04-01T12:23:32.841Z,7.43
2019-04-01T12:26:15.016Z,6.83
2019-04-01T12:28:36.673Z,7.03
2019-04-01T12:31:07.990Z,6.73
2019-04-01T12:33:38.773Z,6.37
2019-04-01T12:36:11.598Z,6.53
2019-04-01T12:38:41.882Z,6.73
2019-04-01T12:41:12.494Z,6.93
2019-04-01T12:43:43.619Z,7.53
2019-04-01T12:46:14.559Z,6.77
2019-04-01T12:48:45.531Z,6.57
2019-04-01T12:51:16.537Z,6.87
2019-04-01T12:53:48.051Z,7.10
2019-04-01T12:56:19.649Z,6.70
2019-04-01T12:58:50.432Z,7.20
2019-04-01T13:01:21.124Z,6.70
2019-04-01T13:03:51.904Z,7.07
2019-04-01T13:06:22.697Z,7.17
2019-04-01T13:08:54.042Z,6.00
2019-04-01T13:11:24.765Z,9.30
2019-04-01T13:13:55.463Z,7.03
2019-04-01T13:16:26.389Z,6.57
2019-04-01T13:18:57.719Z,7.25
2019-04-01T13:21:28.989Z,6.58
2019-04-01T13:23:59.492Z,6.67
2019-04-01T13:26:30.966Z,6.33
2019-04-01T13:29:01.767Z,6.60
2019-04-01T13:31:33.156Z,7.33
2019-04-01T13:34:04.189Z,6.73
2019-04-01T13:36:34.996Z,6.40
2019-04-01T13:39:06.778Z,7.40
2019-04-01T13:41:42.727Z,7.00
2019-04-01T13:44:10.341Z,6.03
2019-04-01T13:46:41.103Z,6.00
2019-04-01T13:49:14.365Z,6.67
2019-04-01T13:51:45.970Z,5.87
2019-04-01T13:54:17.265Z,5.83
2019-04-01T13:56:48.595Z,6.80
2019-04-01T13:59:19.396Z,6.62
2019-04-01T14:01:50.438Z,6.17
2019-04-01T14:04:21.665Z,6.23
2019-04-01T14:06:53.906Z,5.80
2019-04-01T14:09:24.834Z,5.67
2019-04-01T14:11:56.928Z,6.43
2019-04-01T14:14:27.724Z,5.80
2019-04-01T14:16:59.058Z,5.67
2019-04-01T14:19:30.492Z,5.80
2019-04-01T14:22:01.097Z,5.03
2019-04-01T14:24:32.324Z,5.27
2019-04-01T14:27:03.875Z,5.22
2019-04-01T14:29:36.739Z,5.27
2019-04-01T14:32:08.554Z,6.87
2019-04-01T14:34:39.997Z,5.70
2019-04-01T14:37:13.602Z,5.27
2019-04-01T14:39:45.375Z,4.60
2019-04-01T14:42:15.914Z,4.77
2019-04-01T14:44:59.232Z,5.37
2019-04-01T14:47:30.499Z,5.10
2019-04-01T14:50:03.014Z,4.93
2019-04-01T14:52:35.123Z,5.90
2019-04-01T14:55:07.466Z,5.93
2019-04-01T14:57:38.864Z,5.75
2019-04-01T15:00:13.139Z,5.35
2019-04-01T15:02:43.948Z,5.10
2019-04-01T15:05:15.228Z,4.87
2019-04-01T15:07:47.074Z,5.10
2019-04-01T15:10:19.685Z,22.73
2019-04-01T15:13:04.088Z,5.10
2019-04-01T15:15:22.862Z,5.37
2019-04-01T15:17:53.686Z,4.93
2019-04-01T15:20:31.305Z,5.23
2019-04-01T15:23:02.018Z,5.60
2019-04-01T15:25:33.126Z,5.37
2019-04-01T15:28:04.740Z,15.43
2019-04-01T15:30:36.241Z,5.90
2019-04-01T15:33:07.011Z,5.47
2019-04-01T15:35:38.086Z,5.93
2019-04-01T15:38:09.156Z,6.20
2019-04-01T15:40:40.129Z,6.73
2019-04-01T15:43:11.998Z,5.93
2019-04-01T15:45:44.081Z,6.37
2019-04-01T15:48:15.239Z,6.73
2019-04-01T15:50:45.982Z,6.70
2019-04-01T15:53:17.031Z,6.83
2019-04-01T15:55:48.374Z,6.83
2019-04-01T15:58:19.745Z,7.20
2019-04-01T16:00:50.545Z,6.43
2019-04-01T16:03:21.299Z,7.90
2019-04-01T16:05:52.033Z,7.07
2019-04-01T16:08:22.599Z,7.00
2019-04-01T16:10:53.334Z,7.67
2019-04-01T16:13:23.843Z,7.77
2019-04-01T16:15:54.957Z,8.53
2019-04-01T16:18:26.327Z,8.40
2019-04-01T16:20:59.384Z,7.83
2019-04-01T16:23:30.428Z,7.70
2019-04-01T16:26:01.131Z,8.17
2019-04-01T16:28:32.098Z,8.33
2019-04-01T16:31:02.752Z,9.50
2019-04-01T16:33:34.553Z,8.97
2019-04-01T16:36:05.602Z,8.90
2019-04-01T16:38:36.665Z,9.20
2019-04-01T16:41:07.522Z,9.10
2019-04-01T16:43:38.346Z,8.57
2019-04-01T16:46:09.089Z,9.53
2019-04-01T16:48:39.877Z,8.70
2019-04-01T16:51:11.262Z,8.83
2019-04-01T16:53:44.400Z,8.67
2019-04-01T16:56:15.657Z,8.90
2019-04-01T16:58:46.287Z,9.27
2019-04-01T17:01:16.895Z,9.97
2019-04-01T17:03:48.794Z,10.13
2019-04-01T17:06:19.972Z,10.07
2019-04-01T17:08:51.007Z,10.67
2019-04-01T17:11:21.895Z,11.28
2019-04-01T17:13:52.563Z,9.90
2019-04-01T17:16:23.230Z,10.13
2019-04-01T17:18:53.854Z,10.47
2019-04-01T17:21:24.414Z,10.93
2019-04-01T17:23:55.443Z,10.20
2019-04-01T17:26:26.542Z,11.40
2019-04-01T17:28:57.208Z,11.47
2019-04-01T17:31:28.316Z,11.43
2019-04-01T17:33:58.927Z,12.13
2019-04-01T17:36:29.715Z,14.07
2019-04-01T17:39:00.379Z,13.00
2019-04-01T17:41:30.868Z,11.97
2019-04-01T17:44:02.061Z,9.47
2019-04-01T17:46:33.119Z,11.30
2019-04-01T17:49:03.661Z,10.60
2019-04-01T17:51:34.424Z,10.00
2019-04-01T17:54:04.990Z,9.63
2019-04-01T17:56:35.736Z,9.87
2019-04-01T17:59:06.452Z,9.77
2019-04-01T18:01:37.056Z,10.03
2019-04-01T18:04:08.168Z,10.13
2019-04-01T18:06:39.414Z,9.47
2019-04-01T18:09:10.454Z,9.67
2019-04-01T18:11:41.066Z,9.80
2019-04-01T18:14:11.724Z,9.50
2019-04-01T18:16:43.156Z,9.47
2019-04-01T18:19:14.236Z,9.73
2019-04-01T18:21:45.698Z,9.33
2019-04-01T18:24:16.785Z,10.17
2019-04-01T18:26:47.904Z,10.30
2019-04-01T18:29:18.592Z,9.53
2019-04-01T18:31:49.309Z,9.50
2019-04-01T18:34:20.000Z,10.23
2019-04-01T18:36:51.989Z,9.80
2019-04-01T18:39:23.458Z,9.97
2019-04-01T18:41:53.951Z,10.33
2019-04-01T18:44:25.454Z,9.40
2019-04-01T18:46:56.727Z,10.80
2019-04-01T18:49:27.760Z,11.00
2019-04-01T18:51:58.908Z,10.63
2019-04-01T18:54:29.673Z,11.17
2019-04-01T18:57:03.503Z,10.67
2019-04-01T18:59:32.912Z,10.47
2019-04-01T19:02:04.010Z,10.53
2019-04-01T19:04:35.052Z,10.20
2019-04-01T19:07:05.840Z,9.77
2019-04-01T19:09:36.929Z,10.30
2019-04-01T19:12:07.785Z,10.53
2019-04-01T19:14:40.027Z,10.17
2019-04-01T19:17:11.401Z,10.57
2019-04-01T19:19:42.756Z,9.63
2019-04-01T19:22:13.802Z,9.43
2019-04-01T19:24:44.505Z,9.37
2019-04-01T19:27:15.593Z,9.77
2019-04-01T19:29:48.096Z,10.70
2019-04-01T19:32:19.371Z,10.10
2019-04-01T19:34:52.176Z,10.40
2019-04-01T19:37:24.112Z,9.63
2019-04-01T19:39:56.196Z,10.27
2019-04-01T19:42:28.041Z,9.93
2019-04-01T19:45:00.647Z,9.70
2019-04-01T19:47:32.667Z,10.30
2019-04-01T19:50:04.403Z,9.80
2019-04-01T19:52:36.758Z,9.73
2019-04-01T19:55:09.583Z,9.93
2019-04-01T19:57:41.139Z,10.00
2019-04-01T20:00:26.615Z,10.40
2019-04-01T20:02:46.365Z,9.47
2019-04-01T20:05:17.735Z,10.33
2019-04-01T20:07:48.763Z,10.57
2019-04-01T20:10:21.490Z,10.03
2019-04-01T20:12:53.241Z,10.37
2019-04-01T20:15:25.429Z,10.10
2019-04-01T20:17:57.365Z,11.00
2019-04-01T20:20:30.137Z,9.83
2019-04-01T20:23:03.389Z,10.20
2019-04-01T20:25:36.043Z,11.07
2019-04-01T20:28:08.468Z,9.63
2019-04-01T20:30:42.630Z,10.13
2019-04-01T20:33:18.190Z,10.87
2019-04-01T20:35:48.365Z,10.43
2019-04-01T20:38:20.092Z,10.57
2019-04-01T20:40:53.400Z,11.37
2019-04-01T20:43:25.577Z,11.03
2019-04-01T20:45:58.187Z,11.10
2019-04-01T20:48:29.783Z,10.03
2019-04-01T20:51:02.112Z,10.53
2019-04-01T20:53:35.071Z,10.03
2019-04-01T20:56:07.478Z,10.83
2019-04-01T20:58:39.705Z,9.97
2019-04-01T21:01:12.312Z,9.43
2019-04-01T21:03:45.175Z,9.80
2019-04-01T21:06:16.701Z,9.00
2019-04-01T21:08:47.969Z,9.03
2019-04-01T21:11:20.022Z,9.60
2019-04-01T21:13:52.351Z,9.30
2019-04-01T21:16:24.264Z,9.77
2019-04-01T21:18:56.459Z,9.43
2019-04-01T21:21:28.179Z,9.77
2019-04-01T21:24:00.302Z,9.60
2019-04-01T21:26:32.069Z,10.10
2019-04-01T21:29:03.822Z,9.37
2019-04-01T21:31:35.175Z,10.27
2019-04-01T21:34:07.848Z,10.63
2019-04-01T21:36:39.904Z,10.13
2019-04-01T21:39:11.614Z,10.03
2019-04-01T21:41:43.114Z,11.23
2019-04-01T21:44:14.357Z,11.37
2019-04-01T21:46:46.333Z,11.90
2019-04-01T21:49:18.378Z,12.57
2019-04-01T21:51:51.340Z,13.83
2019-04-01T21:54:23.243Z,11.67
2019-04-01T21:56:54.465Z,12.23
2019-04-01T21:59:26.558Z,12.80
2019-04-01T22:01:58.360Z,12.37
2019-04-01T22:04:30.912Z,12.60
2019-04-01T22:07:02.685Z,12.27
2019-04-01T22:09:34.581Z,12.57
2019-04-01T22:12:05.958Z,10.07
2019-04-01T22:14:38.307Z,10.73
2019-04-01T22:17:09.706Z,10.87
2019-04-01T22:19:41.716Z,10.97
2019-04-01T22:22:13.306Z,10.93
2019-04-01T22:24:45.355Z,11.00
2019-04-01T22:27:16.522Z,11.80
2019-04-01T22:29:48.940Z,10.87
2019-04-01T22:32:20.648Z,11.50
2019-04-01T22:34:53.539Z,10.33
2019-04-01T22:37:27.336Z,10.50
2019-04-01T22:39:57.930Z,10.53
2019-04-01T22:42:29.115Z,10.93
2019-04-01T22:45:01.272Z,10.53
2019-04-01T22:47:32.617Z,11.03
2019-04-01T22:50:04.263Z,10.40
2019-04-01T22:52:35.818Z,10.33
2019-04-01T22:55:08.201Z,11.77
2019-04-01T22:57:40.030Z,11.30
2019-04-01T23:00:11.755Z,10.83
2019-04-01T23:02:43.257Z,10.90
2019-04-01T23:05:14.721Z,11.47
2019-04-01T23:07:46.705Z,11.77
2019-04-01T23:10:17.938Z,10.93
2019-04-01T23:12:50.938Z,11.20
2019-04-01T23:15:22.502Z,12.10
2019-04-01T23:17:54.068Z,12.37
2019-04-01T23:20:25.232Z,11.97
2019-04-01T23:22:57.862Z,12.20
2019-04-01T23:25:29.887Z,11.83
2019-04-01T23:28:19.957Z,13.17
2019-04-01T23:30:52.154Z,10.87
2019-04-01T23:33:23.974Z,12.50
2019-04-01T23:35:55.090Z,12.23
2019-04-01T23:38:27.010Z,12.27
2019-04-01T23:40:58.418Z,11.40
2019-04-01T23:43:29.984Z,12.43
2019-04-01T23:46:01.625Z,11.83
2019-04-01T23:48:33.469Z,12.20
2019-04-01T23:51:07.035Z,11.50
2019-04-01T23:53:38.531Z,11.47
2019-04-01T23:56:10.331Z,11.80
2019-04-01T23:58:42.082Z,11.63
